createdAt,value
2023-02-13T00:00:19.596Z,99.99
2023-02-13T00:01:20.259Z,99.99
2023-02-13T00:02:21.330Z,99.99
2023-02-13T00:03:22.350Z,99.99
2023-02-13T00:04:22.495Z,99.99
2023-02-13T00:05:22.668Z,99.99
2023-02-13T00:06:22.858Z,99.99
2023-02-13T00:07:24.069Z,99.99
2023-02-13T00:08:24.594Z,99.99
2023-02-13T00:09:25.540Z,99.99
2023-02-13T00:10:25.886Z,99.99
2023-02-13T00:11:26.824Z,99.99
2023-02-13T00:12:27.771Z,99.99
2023-02-13T00:13:27.753Z,99.99
2023-02-13T00:14:28.701Z,99.99
2023-02-13T00:15:29.077Z,99.99
2023-02-13T00:16:29.900Z,99.99
2023-02-13T00:17:30.835Z,99.99
2023-02-13T00:18:30.963Z,99.99
2023-02-13T00:19:31.606Z,99.99
2023-02-13T00:20:32.086Z,99.99
2023-02-13T00:21:32.280Z,99.99
2023-02-13T00:22:33.202Z,99.99
2023-02-13T00:23:33.873Z,99.99
2023-02-13T00:24:33.797Z,99.99
2023-02-13T00:25:34.878Z,99.99
2023-02-13T00:26:35.556Z,99.99
2023-02-13T00:27:36.114Z,99.99
2023-02-13T00:28:36.284Z,99.99
2023-02-13T00:29:36.709Z,99.99
2023-02-13T00:30:37.195Z,99.99
2023-02-13T00:31:37.574Z,99.99
2023-02-13T00:32:37.608Z,99.99
2023-02-13T00:33:38.094Z,99.99
2023-02-13T00:34:38.447Z,99.99
2023-02-13T00:35:38.730Z,99.99
2023-02-13T00:36:39.928Z,99.99
2023-02-13T00:37:39.857Z,99.99
2023-02-13T00:38:40.802Z,99.99
2023-02-13T00:39:41.143Z,99.99
2023-02-13T00:40:42.085Z,99.99
2023-02-13T00:41:42.285Z,99.99
2023-02-13T00:42:42.948Z,99.99
2023-02-13T00:43:43.241Z,99.99
2023-02-13T00:44:43.752Z,99.99
2023-02-13T00:45:44.383Z,99.99
2023-02-13T00:46:44.575Z,99.99
2023-02-13T00:47:45.070Z,99.99
2023-02-13T00:48:45.989Z,99.99
2023-02-13T00:49:46.666Z,99.99
2023-02-13T00:50:46.859Z,99.99
2023-02-13T00:51:47.219Z,99.99
2023-02-13T00:52:48.137Z,99.99
2023-02-13T00:53:48.492Z,99.99
2023-02-13T00:54:48.996Z,99.99
2023-02-13T00:55:50.043Z,99.99
2023-02-13T00:56:50.284Z,99.99
2023-02-13T00:57:50.502Z,99.99
2023-02-13T00:58:51.579Z,99.99
2023-02-13T00:59:51.900Z,99.99
2023-02-13T01:00:52.138Z,99.99
2023-02-13T01:01:52.966Z,99.99
2023-02-13T01:02:53.822Z,99.99
2023-02-13T01:03:54.963Z,99.99
2023-02-13T01:04:54.793Z,99.99
2023-02-13T01:05:55.606Z,99.99
2023-02-13T01:06:56.255Z,99.99
2023-02-13T01:07:57.197Z,99.99
2023-02-13T01:08:57.705Z,99.99
2023-02-13T01:09:57.620Z,99.99
2023-02-13T01:10:58.560Z,99.99
2023-02-13T01:11:58.490Z,99.99
2023-02-13T01:12:58.722Z,99.99
2023-02-13T01:13:59.023Z,99.99
2023-02-13T01:14:59.282Z,99.99
2023-02-13T01:16:00.256Z,99.99
2023-02-13T01:17:01.159Z,99.99
2023-02-13T01:18:01.052Z,99.99
2023-02-13T01:19:01.696Z,99.99
2023-02-13T01:20:02.064Z,99.99
2023-02-13T01:21:03.808Z,99.99
2023-02-13T01:22:04.033Z,99.99
2023-02-13T01:23:04.877Z,99.99
2023-02-13T01:24:05.502Z,99.99
2023-02-13T01:25:06.427Z,99.99
2023-02-13T01:26:07.779Z,99.99
2023-02-13T01:27:08.016Z,99.99
2023-02-13T01:28:09.112Z,99.99
2023-02-13T01:29:09.579Z,99.99
2023-02-13T01:30:10.096Z,99.99
2023-02-13T01:31:10.604Z,99.99
2023-02-13T01:32:10.618Z,99.99
2023-02-13T01:33:11.104Z,99.99
2023-02-13T01:34:11.303Z,99.99
2023-02-13T01:35:11.519Z,99.99
2023-02-13T01:36:12.842Z,99.99
2023-02-13T01:37:13.491Z,99.99
2023-02-13T01:38:13.414Z,99.99
2023-02-13T01:39:13.948Z,99.99
2023-02-13T01:40:14.446Z,99.99
2023-02-13T01:41:15.375Z,99.99
2023-02-13T01:42:16.020Z,99.99
2023-02-13T01:43:16.963Z,99.99
2023-02-13T01:44:17.251Z,99.99
2023-02-13T01:45:17.211Z,99.99
2023-02-13T01:46:18.690Z,99.99
2023-02-13T01:47:18.681Z,99.99
2023-02-13T01:48:19.167Z,99.99
2023-02-13T01:49:19.179Z,99.99
2023-02-13T01:50:20.435Z,99.99
2023-02-13T01:51:21.350Z,99.99
2023-02-13T01:52:22.268Z,99.99
2023-02-13T01:53:22.599Z,99.99
2023-02-13T01:54:23.836Z,99.99
2023-02-13T01:55:24.752Z,99.99
2023-02-13T01:56:25.826Z,99.99
2023-02-13T01:57:26.452Z,99.99
2023-02-13T01:58:26.893Z,99.99
2023-02-13T01:59:26.885Z,99.99
2023-02-13T02:00:28.152Z,99.99
2023-02-13T02:01:28.831Z,99.99
2023-02-13T02:02:29.417Z,99.99
2023-02-13T02:03:29.843Z,99.99
2023-02-13T02:04:30.803Z,99.99
2023-02-13T02:05:31.019Z,99.99
2023-02-13T02:06:31.357Z,99.99
2023-02-13T02:07:32.082Z,99.99
2023-02-13T02:08:32.279Z,99.99
2023-02-13T02:09:32.472Z,99.99
2023-02-13T02:10:33.100Z,99.99
2023-02-13T02:11:33.293Z,99.99
2023-02-13T02:12:33.956Z,99.99
2023-02-13T02:13:34.386Z,99.99
2023-02-13T02:14:34.655Z,99.99
2023-02-13T02:15:35.196Z,99.99
2023-02-13T02:16:35.709Z,99.99
2023-02-13T02:17:35.607Z,99.99
2023-02-13T02:18:36.527Z,99.99
2023-02-13T02:19:37.438Z,99.99
2023-02-13T02:20:38.376Z,99.99
2023-02-13T02:21:39.294Z,99.99
2023-02-13T02:22:39.801Z,99.99
2023-02-13T02:23:40.624Z,99.99
2023-02-13T02:24:41.281Z,99.99
2023-02-13T02:25:42.231Z,99.99
2023-02-13T02:26:43.311Z,99.99
2023-02-13T02:27:43.943Z,99.99
2023-02-13T02:28:45.162Z,99.99
2023-02-13T02:29:45.465Z,99.99
2023-02-13T02:30:46.071Z,99.99
2023-02-13T02:31:46.080Z,99.99
2023-02-13T02:32:46.508Z,99.99
2023-02-13T02:33:46.690Z,99.99
2023-02-13T02:34:47.596Z,99.99
2023-02-13T02:35:47.807Z,99.99
2023-02-13T02:36:48.129Z,99.99
2023-02-13T02:37:48.635Z,99.99
2023-02-13T02:38:48.544Z,99.99
2023-02-13T02:39:49.756Z,99.99
2023-02-13T02:40:49.943Z,99.99
2023-02-13T02:41:50.590Z,99.99
2023-02-13T02:42:51.104Z,99.99
2023-02-13T02:43:51.720Z,99.99
2023-02-13T02:44:52.293Z,99.99
2023-02-13T02:45:52.516Z,99.99
2023-02-13T02:46:52.974Z,99.99
2023-02-13T02:47:53.130Z,99.99
2023-02-13T02:48:53.338Z,99.99
2023-02-13T02:49:53.975Z,99.99
2023-02-13T02:50:55.138Z,99.99
2023-02-13T02:51:55.492Z,99.99
2023-02-13T02:52:55.863Z,99.99
2023-02-13T02:53:57.114Z,99.99
2023-02-13T02:54:57.009Z,99.99
2023-02-13T02:55:57.784Z,99.99
2023-02-13T02:56:58.372Z,99.99
2023-02-13T02:57:58.564Z,99.99
2023-02-13T02:58:59.975Z,99.99
2023-02-13T03:00:00.571Z,99.99
2023-02-13T03:01:01.353Z,99.99
2023-02-13T03:02:00.966Z,99.99
2023-02-13T03:03:01.880Z,99.99
2023-02-13T03:04:02.449Z,99.99
2023-02-13T03:05:03.167Z,99.99
2023-02-13T03:06:03.805Z,99.99
2023-02-13T03:07:04.573Z,99.99
2023-02-13T03:08:05.481Z,99.99
2023-02-13T03:09:06.119Z,99.99
2023-02-13T03:10:06.779Z,99.99
2023-02-13T03:11:07.261Z,99.99
2023-02-13T03:12:08.170Z,99.99
2023-02-13T03:13:08.150Z,99.99
2023-02-13T03:14:09.097Z,99.99
2023-02-13T03:15:09.152Z,99.99
2023-02-13T03:16:10.506Z,99.99
2023-02-13T03:17:10.354Z,99.99
2023-02-13T03:18:11.047Z,99.99
2023-02-13T03:19:11.956Z,99.99
2023-02-13T03:20:12.456Z,99.99
2023-02-13T03:21:12.943Z,99.99
2023-02-13T03:22:13.175Z,99.99
2023-02-13T03:23:13.927Z,99.99
2023-02-13T03:24:15.123Z,99.99
2023-02-13T03:25:15.333Z,99.99
2023-02-13T03:26:16.032Z,99.99
2023-02-13T03:27:16.098Z,99.99
2023-02-13T03:28:18.134Z,99.99
2023-02-13T03:29:17.699Z,99.99
2023-02-13T03:30:18.261Z,99.99
2023-02-13T03:31:19.137Z,99.99
2023-02-13T03:32:19.179Z,99.99
2023-02-13T03:33:19.804Z,99.99
2023-02-13T03:34:20.786Z,99.99
2023-02-13T03:35:20.723Z,99.99
2023-02-13T03:36:21.200Z,99.99
2023-02-13T03:37:21.340Z,99.99
2023-02-13T03:38:22.565Z,99.99
2023-02-13T03:39:22.768Z,99.99
2023-02-13T03:40:22.966Z,99.99
2023-02-13T03:41:24.162Z,99.99
2023-02-13T03:42:24.089Z,99.99
2023-02-13T03:43:25.444Z,99.99
2023-02-13T03:44:25.664Z,99.99
2023-02-13T03:45:25.935Z,99.99
2023-02-13T03:46:26.076Z,99.99
2023-02-13T03:47:27.156Z,99.99
2023-02-13T03:48:27.383Z,99.99
2023-02-13T03:49:27.591Z,99.99
2023-02-13T03:50:28.213Z,99.99
2023-02-13T03:51:29.152Z,99.99
2023-02-13T03:52:29.511Z,99.99
2023-02-13T03:53:29.802Z,99.99
2023-02-13T03:54:30.731Z,99.99
2023-02-13T03:55:31.091Z,99.99
2023-02-13T03:56:32.306Z,99.99
2023-02-13T03:57:33.031Z,99.99
2023-02-13T03:58:32.946Z,99.99
2023-02-13T03:59:34.181Z,99.99
2023-02-13T04:00:34.597Z,99.99
2023-02-13T04:01:35.069Z,99.99
2023-02-13T04:02:35.255Z,99.99
2023-02-13T04:03:35.809Z,99.99
2023-02-13T04:04:36.461Z,99.99
2023-02-13T04:05:36.650Z,99.99
2023-02-13T04:06:37.137Z,99.99
2023-02-13T04:07:37.786Z,99.99
2023-02-13T04:08:38.424Z,99.99
2023-02-13T04:09:38.665Z,99.99
2023-02-13T04:10:39.165Z,99.99
2023-02-13T04:11:40.071Z,99.99
2023-02-13T04:12:40.372Z,99.99
2023-02-13T04:13:40.569Z,99.99
2023-02-13T04:14:41.706Z,99.99
2023-02-13T04:15:42.258Z,99.99
2023-02-13T04:16:42.270Z,99.99
2023-02-13T04:17:43.241Z,99.99
2023-02-13T04:18:43.606Z,99.99
2023-02-13T04:19:44.545Z,99.99
2023-02-13T04:20:44.913Z,99.99
2023-02-13T04:21:45.238Z,99.99
2023-02-13T04:22:46.443Z,99.99
2023-02-13T04:23:47.370Z,99.99
2023-02-13T04:24:47.682Z,99.99
2023-02-13T04:25:47.881Z,99.99
2023-02-13T04:26:48.513Z,99.99
2023-02-13T04:27:48.997Z,99.99
2023-02-13T04:28:50.258Z,99.99
2023-02-13T04:29:50.765Z,99.99
2023-02-13T04:30:51.507Z,99.99
2023-02-13T04:31:52.076Z,99.99
2023-02-13T04:32:52.054Z,99.99
2023-02-13T04:33:52.271Z,99.99
2023-02-13T04:34:52.900Z,99.99
2023-02-13T04:35:54.109Z,99.99
2023-02-13T04:36:54.352Z,99.99
2023-02-13T04:37:55.059Z,99.99
2023-02-13T04:38:55.970Z,99.99
2023-02-13T04:39:56.398Z,99.99
2023-02-13T04:40:56.939Z,99.99
2023-02-13T04:41:57.131Z,99.99
2023-02-13T04:42:57.680Z,99.99
2023-02-13T04:43:58.199Z,99.99
2023-02-13T04:44:59.138Z,99.99
2023-02-13T04:45:59.220Z,99.99
2023-02-13T04:46:59.808Z,99.99
2023-02-13T04:48:00.429Z,99.99
2023-02-13T04:49:01.381Z,99.99
2023-02-13T04:50:01.338Z,99.99
2023-02-13T04:51:02.452Z,99.99
2023-02-13T04:52:02.953Z,99.99
2023-02-13T04:53:03.465Z,99.99
2023-02-13T04:54:03.662Z,99.99
2023-02-13T04:55:04.300Z,99.99
2023-02-13T04:56:05.246Z,99.99
2023-02-13T04:57:05.724Z,99.99
2023-02-13T04:58:06.440Z,99.99
2023-02-13T04:59:06.753Z,99.99
2023-02-13T05:00:07.453Z,99.99
2023-02-13T05:01:07.916Z,99.99
2023-02-13T05:02:08.170Z,99.99
2023-02-13T05:03:08.628Z,99.99
2023-02-13T05:04:09.386Z,99.99
2023-02-13T05:05:10.225Z,99.99
2023-02-13T05:06:10.531Z,99.99
2023-02-13T05:07:11.175Z,99.99
2023-02-13T05:08:12.273Z,99.99
2023-02-13T05:09:12.204Z,99.99
2023-02-13T05:10:12.400Z,99.99
2023-02-13T05:11:13.055Z,99.99
2023-02-13T05:12:14.341Z,99.99
2023-02-13T05:13:14.366Z,99.99
2023-02-13T05:14:15.295Z,99.99
2023-02-13T05:15:15.819Z,99.99
2023-02-13T05:16:16.278Z,99.99
2023-02-13T05:17:16.931Z,99.99
2023-02-13T05:18:17.081Z,99.99
2023-02-13T05:19:17.717Z,99.99
2023-02-13T05:20:18.291Z,99.99
2023-02-13T05:21:18.933Z,99.99
2023-02-13T05:22:19.556Z,99.99
2023-02-13T05:23:20.248Z,99.99
2023-02-13T05:24:20.809Z,99.99
2023-02-13T05:25:21.742Z,99.99
2023-02-13T05:26:22.026Z,99.99
2023-02-13T05:27:22.232Z,99.99
2023-02-13T05:28:22.451Z,99.99
2023-02-13T05:29:23.324Z,99.99
2023-02-13T05:30:24.260Z,99.99
2023-02-13T05:31:24.727Z,99.99
2023-02-13T05:32:25.868Z,99.99
2023-02-13T05:33:26.151Z,99.99
2023-02-13T05:34:26.825Z,99.99
2023-02-13T05:35:27.724Z,99.99
2023-02-13T05:36:28.652Z,99.99
2023-02-13T05:37:29.281Z,99.99
2023-02-13T05:38:29.283Z,99.99
2023-02-13T05:39:30.227Z,99.99
2023-02-13T05:40:31.422Z,99.99
2023-02-13T05:41:32.052Z,99.99
2023-02-13T05:42:32.680Z,99.99
2023-02-13T05:43:33.913Z,99.99
2023-02-13T05:44:34.125Z,99.99
2023-02-13T05:45:35.390Z,99.99
2023-02-13T05:46:35.829Z,99.99
2023-02-13T05:47:36.227Z,99.99
2023-02-13T05:48:36.616Z,99.99
2023-02-13T05:49:36.541Z,99.99
2023-02-13T05:50:37.035Z,99.99
2023-02-13T05:51:37.242Z,99.99
2023-02-13T05:52:37.156Z,99.99
2023-02-13T05:53:38.210Z,99.99
2023-02-13T05:54:38.702Z,99.99
2023-02-13T05:55:38.916Z,99.99
2023-02-13T05:56:38.836Z,99.99
2023-02-13T05:57:40.339Z,99.99
2023-02-13T05:58:39.492Z,99.99
2023-02-13T05:59:40.439Z,99.99
2023-02-13T06:00:41.868Z,99.99
2023-02-13T06:01:42.156Z,99.99
2023-02-13T06:02:42.805Z,99.99
2023-02-13T06:03:43.842Z,99.99
2023-02-13T06:04:44.524Z,99.99
2023-02-13T06:05:45.021Z,99.99
2023-02-13T06:06:45.661Z,99.99
2023-02-13T06:07:46.874Z,99.99
2023-02-13T06:08:47.656Z,99.99
2023-02-13T06:09:48.592Z,99.99
2023-02-13T06:10:50.460Z,99.99
2023-02-13T06:11:49.921Z,99.99
2023-02-13T06:12:50.130Z,99.99
2023-02-13T06:13:51.050Z,99.99
2023-02-13T06:14:51.705Z,99.99
2023-02-13T06:15:52.720Z,99.99
2023-02-13T06:16:53.565Z,99.99
2023-02-13T06:17:54.526Z,99.99
2023-02-13T06:18:55.255Z,99.99
2023-02-13T06:19:55.523Z,99.99
2023-02-13T06:20:56.029Z,99.99
2023-02-13T06:21:56.437Z,99.99
2023-02-13T06:22:56.631Z,99.99
2023-02-13T06:23:57.580Z,99.99
2023-02-13T06:24:58.513Z,99.99
2023-02-13T06:25:58.712Z,99.99
2023-02-13T06:26:59.340Z,99.99
2023-02-13T06:28:00.015Z,99.99
2023-02-13T06:29:00.436Z,99.99
2023-02-13T06:30:01.492Z,99.99
2023-02-13T06:31:02.932Z,99.99
2023-02-13T06:32:02.830Z,99.99
2023-02-13T06:33:03.926Z,99.99
2023-02-13T06:34:04.120Z,99.99
2023-02-13T06:35:05.678Z,99.99
2023-02-13T06:36:04.954Z,99.99
2023-02-13T06:37:06.169Z,99.99
2023-02-13T06:38:06.112Z,99.99
2023-02-13T06:39:07.146Z,99.99
2023-02-13T06:40:07.425Z,99.99
2023-02-13T06:41:08.656Z,99.99
2023-02-13T06:42:09.411Z,99.99
2023-02-13T06:43:10.053Z,99.99
2023-02-13T06:44:09.983Z,99.99
2023-02-13T06:45:11.172Z,99.99
2023-02-13T06:46:11.396Z,99.99
2023-02-13T06:47:11.847Z,99.99
2023-02-13T06:48:12.363Z,99.99
2023-02-13T06:49:12.683Z,99.99
2023-02-13T06:50:13.643Z,99.99
2023-02-13T06:51:14.641Z,99.99
2023-02-13T06:52:14.870Z,99.99
2023-02-13T06:53:15.806Z,99.99
2023-02-13T06:54:16.012Z,99.99
2023-02-13T06:55:16.716Z,99.99
2023-02-13T06:56:16.960Z,99.99
2023-02-13T06:57:17.886Z,99.99
2023-02-13T06:58:18.375Z,99.99
2023-02-13T06:59:19.091Z,99.99
2023-02-13T07:00:20.302Z,99.99
2023-02-13T07:01:20.963Z,99.99
2023-02-13T07:02:21.835Z,99.99
2023-02-13T07:03:22.047Z,99.99
2023-02-13T07:04:23.266Z,99.99
2023-02-13T07:05:24.250Z,99.99
2023-02-13T07:06:24.900Z,99.99
2023-02-13T07:07:25.127Z,99.99
2023-02-13T07:08:25.796Z,99.99
2023-02-13T07:09:26.223Z,99.99
2023-02-13T07:10:26.723Z,99.99
2023-02-13T07:11:26.717Z,99.99
2023-02-13T07:12:27.634Z,99.99
2023-02-13T07:13:28.556Z,99.99
2023-02-13T07:14:28.762Z,99.99
2023-02-13T07:15:29.417Z,99.99
2023-02-13T07:16:30.367Z,99.99
2023-02-13T07:17:31.101Z,99.99
2023-02-13T07:18:31.351Z,99.99
2023-02-13T07:19:31.918Z,99.99
2023-02-13T07:20:31.836Z,99.99
2023-02-13T07:21:33.089Z,99.99
2023-02-13T07:22:33.334Z,99.99
2023-02-13T07:23:34.252Z,99.99
2023-02-13T07:24:34.469Z,99.99
2023-02-13T07:25:34.396Z,99.99
2023-02-13T07:26:35.233Z,99.99
2023-02-13T07:27:35.585Z,99.99
2023-02-13T07:28:36.866Z,99.99
2023-02-13T07:29:37.074Z,99.99
2023-02-13T07:30:37.812Z,99.99
2023-02-13T07:31:38.016Z,99.99
2023-02-13T07:32:38.541Z,99.99
2023-02-13T07:33:39.087Z,99.99
2023-02-13T07:34:42.679Z,99.99
2023-02-13T07:35:39.947Z,99.99
2023-02-13T07:36:40.883Z,99.99
2023-02-13T07:37:41.801Z,99.99
2023-02-13T07:38:42.741Z,99.99
2023-02-13T07:39:43.734Z,99.99
2023-02-13T07:40:43.664Z,99.99
2023-02-13T07:41:44.342Z,99.99
2023-02-13T07:42:44.718Z,99.99
2023-02-13T07:43:45.649Z,99.99
2023-02-13T07:44:46.591Z,99.99
2023-02-13T07:45:47.524Z,99.99
2023-02-13T07:46:47.844Z,99.99
2023-02-13T07:47:48.153Z,99.99
2023-02-13T07:48:48.445Z,99.99
2023-02-13T07:49:49.288Z,99.99
2023-02-13T07:51:03.354Z,99.99
2023-02-13T07:51:51.075Z,99.99
2023-02-13T07:52:51.272Z,99.99
2023-02-13T07:53:51.965Z,99.99
2023-02-13T07:54:53.599Z,99.99
2023-02-13T07:55:53.536Z,99.99
2023-02-13T07:56:53.803Z,99.99
2023-02-13T07:57:55.024Z,99.99
2023-02-13T07:58:55.230Z,99.99
2023-02-13T07:59:55.867Z,99.99
2023-02-13T08:00:56.184Z,99.99
2023-02-13T08:01:57.513Z,99.99
2023-02-13T08:02:58.125Z,99.99
2023-02-13T08:03:58.189Z,99.99
2023-02-13T08:04:58.744Z,99.99
2023-02-13T08:05:59.261Z,99.99
2023-02-13T08:06:59.462Z,99.99
2023-02-13T08:08:00.397Z,99.99
2023-02-13T08:09:01.614Z,99.99
2023-02-13T08:10:02.420Z,99.99
2023-02-13T08:11:02.645Z,99.99
2023-02-13T08:12:03.893Z,99.99
2023-02-13T08:13:04.389Z,99.99
2023-02-13T08:14:04.923Z,99.99
2023-02-13T08:15:05.439Z,99.99
2023-02-13T08:16:06.268Z,99.99
2023-02-13T08:17:06.451Z,99.99
2023-02-13T08:18:06.533Z,99.99
2023-02-13T08:19:07.043Z,99.99
2023-02-13T08:20:07.523Z,99.99
2023-02-13T08:21:08.168Z,99.99
2023-02-13T08:22:09.073Z,99.99
2023-02-13T08:23:09.722Z,99.99
2023-02-13T08:24:10.397Z,99.99
2023-02-13T08:25:11.056Z,99.99
2023-02-13T08:26:12.447Z,99.99
2023-02-13T08:27:12.690Z,99.99
2023-02-13T08:28:13.111Z,99.99
2023-02-13T08:29:13.598Z,99.99
2023-02-13T08:30:14.257Z,99.99
2023-02-13T08:31:17.325Z,99.99
2023-02-13T08:32:15.654Z,99.99
2023-02-13T08:33:16.260Z,99.99
2023-02-13T08:34:16.295Z,99.99
2023-02-13T08:35:17.329Z,99.99
2023-02-13T08:36:18.330Z,99.99
2023-02-13T08:37:19.269Z,99.99
2023-02-13T08:38:19.481Z,99.99
2023-02-13T08:39:20.124Z,99.99
2023-02-13T08:40:20.605Z,99.99
2023-02-13T08:41:24.177Z,99.99
2023-02-13T08:42:22.022Z,99.99
2023-02-13T08:43:22.514Z,99.99
2023-02-13T08:44:23.192Z,99.99
2023-02-13T08:45:23.122Z,99.99
2023-02-13T08:46:23.985Z,99.99
2023-02-13T08:47:24.694Z,99.99
2023-02-13T08:48:25.295Z,99.99
2023-02-13T08:49:25.529Z,99.99
2023-02-13T08:50:25.820Z,99.99
2023-02-13T08:51:26.662Z,99.99
2023-02-13T08:52:27.180Z,99.99
2023-02-13T08:53:27.677Z,99.99
2023-02-13T08:54:28.263Z,99.99
2023-02-13T08:55:28.518Z,99.99
2023-02-13T08:56:28.797Z,99.99
2023-02-13T08:57:29.471Z,99.99
2023-02-13T08:58:29.968Z,99.99
2023-02-13T08:59:30.895Z,99.99
2023-02-13T09:00:31.674Z,99.99
2023-02-13T09:01:33.114Z,99.99
2023-02-13T09:02:33.474Z,99.99
2023-02-13T09:03:34.257Z,99.99
2023-02-13T09:04:34.847Z,99.99
2023-02-13T09:05:34.789Z,99.99
2023-02-13T09:06:36.035Z,99.99
2023-02-13T09:07:36.374Z,99.99
2023-02-13T09:08:36.910Z,99.99
2023-02-13T09:09:37.120Z,99.99
2023-02-13T09:10:37.534Z,99.99
2023-02-13T09:11:38.444Z,99.99
2023-02-13T09:12:38.653Z,99.99
2023-02-13T09:13:39.577Z,99.99
2023-02-13T09:14:40.223Z,99.99
2023-02-13T09:15:41.164Z,99.99
2023-02-13T09:16:41.178Z,99.99
2023-02-13T09:17:42.598Z,99.99
2023-02-13T09:18:43.176Z,99.99
2023-02-13T09:19:43.687Z,99.99
2023-02-13T09:20:44.703Z,99.99
2023-02-13T09:21:45.338Z,99.99
2023-02-13T09:22:46.273Z,99.99
2023-02-13T09:23:46.835Z,99.99
2023-02-13T09:24:47.192Z,99.99
2023-02-13T09:25:48.402Z,99.99
2023-02-13T09:26:48.918Z,99.99
2023-02-13T09:27:49.705Z,99.99
2023-02-13T09:28:50.640Z,99.99
2023-02-13T09:29:51.342Z,99.99
2023-02-13T09:30:52.372Z,99.99
2023-02-13T09:31:53.138Z,99.99
2023-02-13T09:32:53.226Z,99.99
2023-02-13T09:33:53.836Z,99.99
2023-02-13T09:34:54.073Z,99.99
2023-02-13T09:35:54.484Z,99.99
2023-02-13T09:36:54.312Z,99.99
2023-02-13T09:37:55.281Z,99.99
2023-02-13T09:38:55.525Z,99.99
2023-02-13T09:39:55.796Z,99.99
2023-02-13T09:40:56.102Z,99.99
2023-02-13T09:41:56.480Z,99.99
2023-02-13T09:42:56.457Z,99.99
2023-02-13T09:43:56.845Z,99.99
2023-02-13T09:44:57.453Z,99.99
2023-02-13T09:45:58.462Z,99.99
2023-02-13T09:46:58.679Z,99.99
2023-02-13T09:47:59.621Z,99.99
2023-02-13T09:48:59.779Z,99.99
2023-02-13T09:50:00.765Z,99.99
2023-02-13T09:51:01.143Z,99.99
2023-02-13T09:52:01.691Z,99.99
2023-02-13T09:53:01.895Z,99.99
2023-02-13T09:54:03.123Z,99.99
2023-02-13T09:55:03.400Z,99.99
2023-02-13T09:56:04.203Z,99.99
2023-02-13T09:57:04.568Z,99.99
2023-02-13T09:58:04.825Z,99.99
2023-02-13T09:59:05.046Z,99.99
2023-02-13T10:00:05.270Z,99.99
2023-02-13T10:01:06.382Z,99.99
2023-02-13T10:02:07.192Z,99.99
2023-02-13T10:03:07.475Z,99.99
2023-02-13T10:04:08.202Z,99.99
2023-02-13T10:05:08.977Z,99.99
2023-02-13T10:06:08.777Z,99.99
2023-02-13T10:07:09.280Z,99.99
2023-02-13T10:08:09.506Z,99.99
2023-02-13T10:09:10.532Z,99.99
2023-02-13T10:10:11.288Z,99.99
2023-02-13T10:11:11.448Z,99.99
2023-02-13T10:12:12.316Z,99.99
2023-02-13T10:13:12.745Z,99.99
2023-02-13T10:14:13.620Z,99.99
2023-02-13T10:15:14.551Z,99.99
2023-02-13T10:16:15.527Z,99.99
2023-02-13T10:17:15.795Z,99.99
2023-02-13T10:18:17.055Z,99.99
2023-02-13T10:19:17.329Z,99.99
2023-02-13T10:20:17.870Z,99.99
2023-02-13T10:21:18.623Z,99.99
2023-02-13T10:22:19.560Z,99.99
2023-02-13T10:23:20.777Z,99.99
2023-02-13T10:24:21.720Z,99.99
2023-02-13T10:25:21.658Z,99.99
2023-02-13T10:26:24.484Z,99.99
2023-02-13T10:27:22.982Z,99.99
2023-02-13T10:28:23.847Z,99.99
2023-02-13T10:29:24.261Z,99.99
2023-02-13T10:30:24.329Z,99.99
2023-02-13T10:31:25.517Z,99.99
2023-02-13T10:32:26.488Z,99.99
2023-02-13T10:33:26.937Z,99.99
2023-02-13T10:34:27.976Z,99.99
2023-02-13T10:35:28.499Z,99.99
2023-02-13T10:36:29.486Z,99.99
2023-02-13T10:37:30.172Z,99.99
2023-02-13T10:38:30.521Z,99.99
2023-02-13T10:39:31.798Z,99.99
2023-02-13T10:40:32.038Z,99.99
2023-02-13T10:41:32.510Z,99.99
2023-02-13T10:42:34.684Z,99.99
2023-02-13T10:43:33.343Z,99.99
2023-02-13T10:44:34.564Z,99.99
2023-02-13T10:45:34.774Z,99.99
2023-02-13T10:46:35.525Z,99.99
2023-02-13T10:47:36.198Z,99.99
2023-02-13T10:48:37.026Z,99.99
2023-02-13T10:49:37.191Z,99.99
2023-02-13T10:50:37.752Z,99.99
2023-02-13T10:51:38.406Z,99.99
2023-02-13T10:52:38.364Z,99.4
2023-02-13T10:53:39.323Z,98.74
2023-02-13T10:54:39.259Z,97.69
2023-02-13T10:55:40.584Z,97.69
2023-02-13T10:56:41.131Z,97.17
2023-02-13T10:57:41.676Z,94.6
2023-02-13T10:58:41.984Z,94.08
2023-02-13T10:59:41.981Z,91.61
2023-02-13T11:00:43.366Z,91.08
2023-02-13T11:01:43.999Z,90.03
2023-02-13T11:02:44.533Z,88.93
2023-02-13T11:03:45.754Z,87.03
2023-02-13T11:04:46.479Z,85.13
2023-02-13T11:05:46.733Z,82.41
2023-02-13T11:06:47.844Z,80.41
2023-02-13T11:07:48.859Z,79.36
2023-02-13T11:08:49.275Z,79.64
2023-02-13T11:09:50.238Z,79.74
2023-02-13T11:10:50.290Z,80.12
2023-02-13T11:11:51.519Z,81.03
2023-02-13T11:12:52.100Z,81.23
2023-02-13T11:13:52.468Z,81.46
2023-02-13T11:14:52.846Z,80.5
2023-02-13T11:15:53.874Z,80.02
2023-02-13T11:16:54.295Z,79.99
2023-02-13T11:17:54.397Z,81.7
2023-02-13T11:18:54.980Z,82.7
2023-02-13T11:19:54.976Z,84.42
2023-02-13T11:20:55.590Z,84.33
2023-02-13T11:21:56.620Z,85.52
2023-02-13T11:22:57.136Z,87.04
2023-02-13T11:23:57.053Z,89.61
2023-02-13T11:24:58.240Z,88.09
2023-02-13T11:25:59.044Z,88.37
2023-02-13T11:26:59.817Z,88.85
2023-02-13T11:28:00.202Z,89.42
2023-02-13T11:29:00.458Z,91.13
2023-02-13T11:30:01.130Z,90.84
2023-02-13T11:31:02.609Z,89.99
2023-02-13T11:32:03.357Z,89.99
2023-02-13T11:33:03.516Z,89.61
2023-02-13T11:34:04.747Z,90.56
2023-02-13T11:35:04.046Z,89.8
2023-02-13T11:36:04.726Z,89.89
2023-02-13T11:37:04.968Z,90.56
2023-02-13T11:38:05.469Z,91.08
2023-02-13T11:39:05.726Z,91.75
2023-02-13T11:40:06.674Z,93.75
2023-02-13T11:41:06.593Z,95.08
2023-02-13T11:42:07.901Z,93.65
2023-02-13T11:43:08.840Z,91.47
2023-02-13T11:44:09.148Z,91.37
2023-02-13T11:45:09.874Z,91.47
2023-02-13T11:46:10.483Z,91.47
2023-02-13T11:47:10.911Z,92.61
2023-02-13T11:48:11.088Z,92.99
2023-02-13T11:49:11.661Z,93.55
2023-02-13T11:50:12.213Z,94.65
2023-02-13T11:51:12.199Z,95.51
2023-02-13T11:52:12.690Z,96.65
2023-02-13T11:53:13.632Z,97.31
2023-02-13T11:54:13.552Z,97.78
2023-02-13T11:55:14.500Z,97.97
2023-02-13T11:56:15.438Z,98.93
2023-02-13T11:57:15.968Z,99.02
2023-02-13T11:58:16.682Z,97.88
2023-02-13T11:59:16.685Z,96.93
2023-02-13T12:00:16.896Z,97.12
2023-02-13T12:01:17.969Z,98.26
2023-02-13T12:02:18.827Z,98.83
2023-02-13T12:03:18.790Z,98.36
2023-02-13T12:04:19.306Z,97.97
2023-02-13T12:05:19.625Z,98.74
2023-02-13T12:06:20.170Z,99.69
2023-02-13T12:07:20.469Z,99.99
2023-02-13T12:08:21.410Z,99.99
2023-02-13T12:09:21.664Z,98.74
2023-02-13T12:10:22.915Z,98.12
2023-02-13T12:11:23.471Z,97.83
2023-02-13T12:12:24.158Z,97.17
2023-02-13T12:13:24.719Z,97.08
2023-02-13T12:14:24.932Z,96.5
2023-02-13T12:15:25.445Z,96.79
2023-02-13T12:16:26.203Z,96.98
2023-02-13T12:17:36.640Z,98.31
2023-02-13T12:18:27.469Z,98.17
2023-02-13T12:19:27.727Z,98.36
2023-02-13T12:20:28.334Z,97.31
2023-02-13T12:21:28.319Z,96.41
2023-02-13T12:22:29.365Z,94.42
2023-02-13T12:23:29.522Z,90.75
2023-02-13T12:24:30.072Z,88.93
2023-02-13T12:25:31.086Z,87.41
2023-02-13T12:26:31.553Z,87.41
2023-02-13T12:27:32.227Z,87.51
2023-02-13T12:28:32.250Z,87.6
2023-02-13T12:29:33.682Z,88.42
2023-02-13T12:30:34.463Z,88.23
2023-02-13T12:31:34.493Z,88.13
2023-02-13T12:32:35.139Z,88.51
2023-02-13T12:33:35.363Z,89.47
2023-02-13T12:34:35.903Z,89.75
2023-02-13T12:35:36.498Z,89.75
2023-02-13T12:36:36.734Z,89.65
2023-02-13T12:37:37.671Z,90.51
2023-02-13T12:38:38.309Z,91.65
2023-02-13T12:39:39.531Z,91.65
2023-02-13T12:40:40.048Z,91.99
2023-02-13T12:41:40.272Z,91.41
2023-02-13T12:42:40.694Z,90.75
2023-02-13T12:43:41.918Z,90.17
2023-02-13T12:44:42.452Z,88.12
2023-02-13T12:45:42.737Z,85.46
2023-02-13T12:46:45.427Z,84.5
2023-02-13T12:47:42.786Z,85.36
2023-02-13T12:48:43.724Z,84.88
2023-02-13T12:49:44.712Z,83.74
2023-02-13T12:50:45.032Z,83.84
2023-02-13T12:51:45.742Z,83.65
2023-02-13T12:52:47.115Z,84.98
2023-02-13T12:53:47.766Z,87.46
2023-02-13T12:54:48.733Z,84.98
2023-02-13T12:55:49.666Z,84.79
2023-02-13T12:56:49.739Z,83.07
2023-02-13T12:57:50.958Z,81.65
2023-02-13T12:58:51.633Z,82.03
2023-02-13T12:59:52.868Z,82.12